sensor_id;sensor_type;location;lat;lon;timestamp;pressure;altitude;pressure_sealevel;temperature;humidity
5609;BME280;2826;51.354;9.588;2023-01-26T00:00:47;98846.88;;;-1.19;93.11
5609;BME280;2826;51.354;9.588;2023-01-26T00:03:13;98845.13;;;-1.22;93.38
5609;BME280;2826;51.354;9.588;2023-01-26T00:05:40;98847.72;;;-1.20;93.45
5609;BME280;2826;51.354;9.588;2023-01-26T00:08:07;98850.34;;;-1.15;93.76
5609;BME280;2826;51.354;9.588;2023-01-26T00:10:34;98848.66;;;-1.15;93.84
5609;BME280;2826;51.354;9.588;2023-01-26T00:13:04;98852.06;;;-1.14;93.81
5609;BME280;2826;51.354;9.588;2023-01-26T00:15:31;98847.56;;;-1.28;93.73
5609;BME280;2826;51.354;9.588;2023-01-26T00:17:58;98838.28;;;-1.27;93.36
5609;BME280;2826;51.354;9.588;2023-01-26T00:20:24;98822.69;;;-1.43;93.48
5609;BME280;2826;51.354;9.588;2023-01-26T00:22:51;98839.50;;;-1.51;93.48
5609;BME280;2826;51.354;9.588;2023-01-26T00:25:18;98833.50;;;-1.55;93.67
5609;BME280;2826;51.354;9.588;2023-01-26T00:27:45;98836.78;;;-1.59;93.74
5609;BME280;2826;51.354;9.588;2023-01-26T00:30:15;98838.25;;;-1.72;93.58
5609;BME280;2826;51.354;9.588;2023-01-26T00:32:42;98832.13;;;-1.80;93.62
5609;BME280;2826;51.354;9.588;2023-01-26T00:35:08;98825.34;;;-1.80;93.27
5609;BME280;2826;51.354;9.588;2023-01-26T00:37:35;98816.81;;;-1.84;93.48
5609;BME280;2826;51.354;9.588;2023-01-26T00:40:02;98816.91;;;-1.77;93.59
5609;BME280;2826;51.354;9.588;2023-01-26T00:42:29;98808.91;;;-1.96;93.78
5609;BME280;2826;51.354;9.588;2023-01-26T00:44:56;98810.19;;;-1.75;93.42
5609;BME280;2826;51.354;9.588;2023-01-26T00:47:23;98814.50;;;-1.73;93.12
5609;BME280;2826;51.354;9.588;2023-01-26T00:49:50;98813.44;;;-1.82;93.15
5609;BME280;2826;51.354;9.588;2023-01-26T00:52:17;98804.75;;;-1.94;93.89
5609;BME280;2826;51.354;9.588;2023-01-26T00:54:43;98768.66;;;-2.17;94.09
5609;BME280;2826;51.354;9.588;2023-01-26T00:57:13;98795.25;;;-2.01;93.98
5609;BME280;2826;51.354;9.588;2023-01-26T00:59:40;98806.84;;;-2.14;94.09
5609;BME280;2826;51.354;9.588;2023-01-26T01:02:06;98804.31;;;-2.13;94.19
5609;BME280;2826;51.354;9.588;2023-01-26T01:04:34;98800.91;;;-2.15;93.72
5609;BME280;2826;51.354;9.588;2023-01-26T01:07:01;98800.81;;;-2.18;93.76
5609;BME280;2826;51.354;9.588;2023-01-26T01:09:28;98803.34;;;-2.19;93.50
5609;BME280;2826;51.354;9.588;2023-01-26T01:11:55;98799.09;;;-2.20;93.63
5609;BME280;2826;51.354;9.588;2023-01-26T01:14:21;98799.91;;;-2.21;93.80
5609;BME280;2826;51.354;9.588;2023-01-26T01:16:48;98791.09;;;-2.38;93.84
5609;BME280;2826;51.354;9.588;2023-01-26T01:19:16;98800.44;;;-2.37;93.46
5609;BME280;2826;51.354;9.588;2023-01-26T01:21:44;98796.00;;;-2.44;93.13
5609;BME280;2826;51.354;9.588;2023-01-26T01:24:12;98796.81;;;-2.46;93.10
5609;BME280;2826;51.354;9.588;2023-01-26T01:26:39;98795.06;;;-2.49;93.52
5609;BME280;2826;51.354;9.588;2023-01-26T01:29:06;98790.63;;;-2.58;93.67
5609;BME280;2826;51.354;9.588;2023-01-26T01:31:33;98788.28;;;-2.50;93.64
5609;BME280;2826;51.354;9.588;2023-01-26T01:33:59;98787.31;;;-2.55;93.68
5609;BME280;2826;51.354;9.588;2023-01-26T01:36:27;98790.72;;;-2.55;93.75
5609;BME280;2826;51.354;9.588;2023-01-26T01:38:57;98793.13;;;-2.59;93.18
5609;BME280;2826;51.354;9.588;2023-01-26T01:41:23;98790.47;;;-2.64;93.38
5609;BME280;2826;51.354;9.588;2023-01-26T01:44:09;98793.13;;;-2.59;93.56
5609;BME280;2826;51.354;9.588;2023-01-26T01:46:38;98764.88;;;-2.73;93.47
5609;BME280;2826;51.354;9.588;2023-01-26T01:49:12;98787.38;;;-2.52;93.42
5609;BME280;2826;51.354;9.588;2023-01-26T01:51:43;98782.44;;;-2.46;93.78
5609;BME280;2826;51.354;9.588;2023-01-26T01:54:14;98784.19;;;-2.43;93.60
5609;BME280;2826;51.354;9.588;2023-01-26T01:56:47;98779.09;;;-2.43;93.42
5609;BME280;2826;51.354;9.588;2023-01-26T01:59:16;98780.72;;;-2.47;93.07
5609;BME280;2826;51.354;9.588;2023-01-26T02:01:45;98778.81;;;-2.56;93.08
5609;BME280;2826;51.354;9.588;2023-01-26T02:04:12;98778.03;;;-2.53;93.50
5609;BME280;2826;51.354;9.588;2023-01-26T02:06:42;98768.88;;;-2.48;93.67
5609;BME280;2826;51.354;9.588;2023-01-26T02:09:13;98768.03;;;-2.47;93.74
5609;BME280;2826;51.354;9.588;2023-01-26T02:12:07;98771.56;;;-2.40;93.67
5609;BME280;2826;51.354;9.588;2023-01-26T02:14:37;98758.66;;;-2.50;93.47
5609;BME280;2826;51.354;9.588;2023-01-26T02:17:04;98764.75;;;-2.43;93.16
5609;BME280;2826;51.354;9.588;2023-01-26T02:19:39;98766.09;;;-2.57;93.24
5609;BME280;2826;51.354;9.588;2023-01-26T02:22:19;98771.94;;;-2.60;93.31
5609;BME280;2826;51.354;9.588;2023-01-26T02:24:55;98763.41;;;-2.64;93.19
5609;BME280;2826;51.354;9.588;2023-01-26T02:27:25;98756.56;;;-2.68;93.61
5609;BME280;2826;51.354;9.588;2023-01-26T02:29:53;98749.06;;;-2.63;93.65
5609;BME280;2826;51.354;9.588;2023-01-26T02:32:20;98758.31;;;-2.65;93.69
5609;BME280;2826;51.354;9.588;2023-01-26T02:34:54;98748.06;;;-2.70;93.88
5609;BME280;2826;51.354;9.588;2023-01-26T02:37:21;98743.72;;;-2.74;93.91
5609;BME280;2826;51.354;9.588;2023-01-26T02:39:52;98745.44;;;-2.73;94.12
5609;BME280;2826;51.354;9.588;2023-01-26T02:42:20;98744.66;;;-2.70;94.37
5609;BME280;2826;51.354;9.588;2023-01-26T02:45:09;98739.69;;;-2.64;94.45
5609;BME280;2826;51.354;9.588;2023-01-26T02:47:37;98740.69;;;-2.59;94.86
5609;BME280;2826;51.354;9.588;2023-01-26T02:50:06;98734.94;;;-2.50;94.64
5609;BME280;2826;51.354;9.588;2023-01-26T02:52:32;98734.78;;;-2.58;94.32
5609;BME280;2826;51.354;9.588;2023-01-26T02:55:07;98731.38;;;-2.58;93.94
5609;BME280;2826;51.354;9.588;2023-01-26T02:57:52;98696.97;;;-2.84;93.75
5609;BME280;2826;51.354;9.588;2023-01-26T03:00:23;98726.94;;;-2.67;93.98
5609;BME280;2826;51.354;9.588;2023-01-26T03:02:52;98719.28;;;-2.69;94.07
5609;BME280;2826;51.354;9.588;2023-01-26T03:05:22;98725.38;;;-2.62;94.36
5609;BME280;2826;51.354;9.588;2023-01-26T03:07:50;98717.84;;;-2.59;94.27
5609;BME280;2826;51.354;9.588;2023-01-26T03:10:19;98716.09;;;-2.60;94.04
5609;BME280;2826;51.354;9.588;2023-01-26T03:12:50;98712.59;;;-2.65;94.09
5609;BME280;2826;51.354;9.588;2023-01-26T03:15:17;98715.19;;;-2.64;94.14
5609;BME280;2826;51.354;9.588;2023-01-26T03:18:05;98715.94;;;-2.68;94.10
5609;BME280;2826;51.354;9.588;2023-01-26T03:20:57;98710.84;;;-2.68;94.11
5609;BME280;2826;51.354;9.588;2023-01-26T03:23:41;98711.75;;;-2.66;94.17
5609;BME280;2826;51.354;9.588;2023-01-26T03:26:26;98714.38;;;-2.61;94.42
5609;BME280;2826;51.354;9.588;2023-01-26T03:29:11;98705.09;;;-2.60;94.64
5609;BME280;2826;51.354;9.588;2023-01-26T03:31:39;98701.81;;;-2.56;94.46
5609;BME280;2826;51.354;9.588;2023-01-26T03:34:07;98701.84;;;-2.55;94.21
5609;BME280;2826;51.354;9.588;2023-01-26T03:36:34;98696.84;;;-2.50;94.38
5609;BME280;2826;51.354;9.588;2023-01-26T03:39:05;98701.19;;;-2.44;94.06
5609;BME280;2826;51.354;9.588;2023-01-26T03:41:33;98702.84;;;-2.46;93.97
5609;BME280;2826;51.354;9.588;2023-01-26T03:44:17;98706.28;;;-2.44;94.00
5609;BME280;2826;51.354;9.588;2023-01-26T03:47:01;98700.41;;;-2.42;93.88
5609;BME280;2826;51.354;9.588;2023-01-26T03:49:47;98703.78;;;-2.43;93.73
5609;BME280;2826;51.354;9.588;2023-01-26T03:52:32;98703.59;;;-2.52;93.72
5609;BME280;2826;51.354;9.588;2023-01-26T03:55:16;98697.75;;;-2.48;93.37
5609;BME280;2826;51.354;9.588;2023-01-26T03:58:00;98683.78;;;-2.67;93.48
5609;BME280;2826;51.354;9.588;2023-01-26T04:00:28;98696.81;;;-2.52;93.68
5609;BME280;2826;51.354;9.588;2023-01-26T04:02:54;98707.84;;;-2.51;93.39
5609;BME280;2826;51.354;9.588;2023-01-26T04:05:40;98704.38;;;-2.55;93.41
5609;BME280;2826;51.354;9.588;2023-01-26T04:08:25;98695.97;;;-2.52;93.59
5609;BME280;2826;51.354;9.588;2023-01-26T04:10:57;98702.03;;;-2.45;93.72
5609;BME280;2826;51.354;9.588;2023-01-26T04:13:25;98702.03;;;-2.45;93.51
5609;BME280;2826;51.354;9.588;2023-01-26T04:16:17;98694.53;;;-2.39;93.66
5609;BME280;2826;51.354;9.588;2023-01-26T04:19:01;98688.59;;;-2.40;93.55
5609;BME280;2826;51.354;9.588;2023-01-26T04:21:47;98690.25;;;-2.42;93.68
5609;BME280;2826;51.354;9.588;2023-01-26T04:24:18;98691.97;;;-2.41;94.17
5609;BME280;2826;51.354;9.588;2023-01-26T04:26:48;98692.03;;;-2.38;94.25
5609;BME280;2826;51.354;9.588;2023-01-26T04:29:20;98683.50;;;-2.41;94.13
5609;BME280;2826;51.354;9.588;2023-01-26T04:31:47;98696.34;;;-2.33;93.92
5609;BME280;2826;51.354;9.588;2023-01-26T04:34:18;98685.44;;;-2.29;93.75
5609;BME280;2826;51.354;9.588;2023-01-26T04:36:44;98678.59;;;-2.32;93.88
5609;BME280;2826;51.354;9.588;2023-01-26T04:39:14;98679.41;;;-2.33;93.77
5609;BME280;2826;51.354;9.588;2023-01-26T04:41:45;98679.38;;;-2.36;93.93
5609;BME280;2826;51.354;9.588;2023-01-26T04:44:14;98682.75;;;-2.37;94.01
5609;BME280;2826;51.354;9.588;2023-01-26T04:46:42;98681.94;;;-2.34;94.28
5609;BME280;2826;51.354;9.588;2023-01-26T04:49:11;98676.09;;;-2.29;94.20
5609;BME280;2826;51.354;9.588;2023-01-26T04:51:38;98681.97;;;-2.31;94.40
5609;BME280;2826;51.354;9.588;2023-01-26T04:54:05;98676.09;;;-2.30;94.37
5609;BME280;2826;51.354;9.588;2023-01-26T04:56:37;98681.19;;;-2.29;94.30
5609;BME280;2826;51.354;9.588;2023-01-26T04:59:05;98670.19;;;-2.29;94.30
5609;BME280;2826;51.354;9.588;2023-01-26T05:01:34;98660.88;;;-2.29;94.51
5609;BME280;2826;51.354;9.588;2023-01-26T05:04:04;98665.16;;;-2.26;94.30
5609;BME280;2826;51.354;9.588;2023-01-26T05:06:32;98663.19;;;-2.40;94.63
5609;BME280;2826;51.354;9.588;2023-01-26T05:08:59;98667.50;;;-2.37;94.40
5609;BME280;2826;51.354;9.588;2023-01-26T05:11:26;98666.63;;;-2.38;94.29
5609;BME280;2826;51.354;9.588;2023-01-26T05:14:17;98664.81;;;-2.43;94.17
5609;BME280;2826;51.354;9.588;2023-01-26T05:17:02;98666.56;;;-2.41;94.63
5609;BME280;2826;51.354;9.588;2023-01-26T05:19:47;98666.88;;;-2.25;93.79
5609;BME280;2826;51.354;9.588;2023-01-26T05:22:30;98665.75;;;-2.38;93.86
5609;BME280;2826;51.354;9.588;2023-01-26T05:25:15;98664.09;;;-2.38;94.65
5609;BME280;2826;51.354;9.588;2023-01-26T05:27:51;98664.31;;;-2.27;94.37
5609;BME280;2826;51.354;9.588;2023-01-26T05:30:19;98662.81;;;-2.15;93.82
5609;BME280;2826;51.354;9.588;2023-01-26T05:32:48;98659.38;;;-2.19;93.40
5609;BME280;2826;51.354;9.588;2023-01-26T05:35:14;98634.56;;;-2.32;93.51
5609;BME280;2826;51.354;9.588;2023-01-26T05:37:42;98668.88;;;-2.08;93.06
5609;BME280;2826;51.354;9.588;2023-01-26T05:40:11;98664.66;;;-2.08;93.14
5609;BME280;2826;51.354;9.588;2023-01-26T05:42:38;98666.34;;;-2.10;92.61
5609;BME280;2826;51.354;9.588;2023-01-26T05:45:12;98607.38;;;-2.37;92.91
5609;BME280;2826;51.354;9.588;2023-01-26T05:47:41;98657.88;;;-2.09;92.72
5609;BME280;2826;51.354;9.588;2023-01-26T05:50:10;98654.47;;;-2.10;92.64
5609;BME280;2826;51.354;9.588;2023-01-26T05:52:38;98657.00;;;-2.10;92.92
5609;BME280;2826;51.354;9.588;2023-01-26T05:55:05;98660.41;;;-2.09;92.94
5609;BME280;2826;51.354;9.588;2023-01-26T05:57:33;98655.44;;;-2.03;93.18
5609;BME280;2826;51.354;9.588;2023-01-26T06:00:04;98658.16;;;-1.93;93.41
5609;BME280;2826;51.354;9.588;2023-01-26T06:02:40;98658.31;;;-1.86;93.39
5609;BME280;2826;51.354;9.588;2023-01-26T06:05:10;98666.09;;;-1.76;93.23
5609;BME280;2826;51.354;9.588;2023-01-26T06:07:37;98665.00;;;-1.89;93.72
5609;BME280;2826;51.354;9.588;2023-01-26T06:10:14;98668.56;;;-1.81;92.98
5609;BME280;2826;51.354;9.588;2023-01-26T06:12:54;98671.16;;;-1.78;92.69
5609;BME280;2826;51.354;9.588;2023-01-26T06:15:54;98668.66;;;-1.75;92.43
5609;BME280;2826;51.354;9.588;2023-01-26T06:18:27;98669.53;;;-1.74;92.05
5609;BME280;2826;51.354;9.588;2023-01-26T06:20:57;98675.41;;;-1.77;92.07
5609;BME280;2826;51.354;9.588;2023-01-26T06:23:25;98672.03;;;-1.76;92.17
5609;BME280;2826;51.354;9.588;2023-01-26T06:25:57;98679.75;;;-1.71;92.18
5609;BME280;2826;51.354;9.588;2023-01-26T06:28:24;98678.06;;;-1.71;92.38
5609;BME280;2826;51.354;9.588;2023-01-26T06:30:51;98674.66;;;-1.71;91.96
5609;BME280;2826;51.354;9.588;2023-01-26T06:33:18;98680.63;;;-1.69;91.97
5609;BME280;2826;51.354;9.588;2023-01-26T06:35:46;98691.53;;;-1.76;91.56
5609;BME280;2826;51.354;9.588;2023-01-26T06:38:13;98693.22;;;-1.77;91.81
5609;BME280;2826;51.354;9.588;2023-01-26T06:40:40;98684.78;;;-1.74;91.95
5609;BME280;2826;51.354;9.588;2023-01-26T06:43:06;98686.44;;;-1.76;91.74
5609;BME280;2826;51.354;9.588;2023-01-26T06:45:33;98698.31;;;-1.75;91.95
5609;BME280;2826;51.354;9.588;2023-01-26T06:48:00;98689.91;;;-1.73;91.59
5609;BME280;2826;51.354;9.588;2023-01-26T06:50:31;98689.94;;;-1.71;91.94
5609;BME280;2826;51.354;9.588;2023-01-26T06:53:03;98693.25;;;-1.75;91.55
5609;BME280;2826;51.354;9.588;2023-01-26T06:55:48;98694.00;;;-1.79;91.83
5609;BME280;2826;51.354;9.588;2023-01-26T06:58:48;98687.25;;;-1.77;91.98
5609;BME280;2826;51.354;9.588;2023-01-26T07:01:37;98683.91;;;-1.75;92.20
5609;BME280;2826;51.354;9.588;2023-01-26T07:04:04;98686.47;;;-1.73;91.91
5609;BME280;2826;51.354;9.588;2023-01-26T07:06:31;98690.00;;;-1.66;92.25
5609;BME280;2826;51.354;9.588;2023-01-26T07:08:59;98690.03;;;-1.65;91.64
5609;BME280;2826;51.354;9.588;2023-01-26T07:11:26;98690.88;;;-1.66;91.78
5609;BME280;2826;51.354;9.588;2023-01-26T07:13:54;98691.69;;;-1.67;91.78
5609;BME280;2826;51.354;9.588;2023-01-26T07:16:21;98694.28;;;-1.65;91.92
5609;BME280;2826;51.354;9.588;2023-01-26T07:18:48;98694.34;;;-1.61;92.13
5609;BME280;2826;51.354;9.588;2023-01-26T07:21:16;98690.94;;;-1.63;91.84
5609;BME280;2826;51.354;9.588;2023-01-26T07:23:43;98688.31;;;-1.66;92.25
5609;BME280;2826;51.354;9.588;2023-01-26T07:26:12;98695.16;;;-1.63;92.11
5609;BME280;2826;51.354;9.588;2023-01-26T07:28:38;98665.94;;;-1.86;92.39
5609;BME280;2826;51.354;9.588;2023-01-26T07:31:06;98696.75;;;-1.68;91.69
5609;BME280;2826;51.354;9.588;2023-01-26T07:33:33;98710.34;;;-1.66;92.29
5609;BME280;2826;51.354;9.588;2023-01-26T07:36:00;98699.16;;;-1.76;92.36
5609;BME280;2826;51.354;9.588;2023-01-26T07:38:27;98710.38;;;-1.65;92.73
5609;BME280;2826;51.354;9.588;2023-01-26T07:40:54;98718.06;;;-1.62;92.87
5609;BME280;2826;51.354;9.588;2023-01-26T07:43:22;98719.88;;;-1.56;92.77
5609;BME280;2826;51.354;9.588;2023-01-26T07:45:52;98713.94;;;-1.55;92.94
5609;BME280;2826;51.354;9.588;2023-01-26T07:48:21;98696.72;;;-1.70;92.87
5609;BME280;2826;51.354;9.588;2023-01-26T07:50:48;98714.91;;;-1.48;93.19
5609;BME280;2826;51.354;9.588;2023-01-26T07:53:15;98712.44;;;-1.45;93.02
5609;BME280;2826;51.354;9.588;2023-01-26T07:55:43;98714.22;;;-1.38;93.02
5609;BME280;2826;51.354;9.588;2023-01-26T07:58:11;98713.44;;;-1.35;92.50
5609;BME280;2826;51.354;9.588;2023-01-26T08:00:39;98711.75;;;-1.35;92.35
5609;BME280;2826;51.354;9.588;2023-01-26T08:03:06;98703.22;;;-1.37;92.41
5609;BME280;2826;51.354;9.588;2023-01-26T08:05:33;98710.56;;;-1.54;92.88
5609;BME280;2826;51.354;9.588;2023-01-26T08:08:01;98702.22;;;-1.47;93.07
5609;BME280;2826;51.354;9.588;2023-01-26T08:10:28;98707.34;;;-1.43;92.80
5609;BME280;2826;51.354;9.588;2023-01-26T08:12:57;98713.31;;;-1.43;92.98
5609;BME280;2826;51.354;9.588;2023-01-26T08:15:23;98712.50;;;-1.40;92.68
5609;BME280;2826;51.354;9.588;2023-01-26T08:17:52;98716.75;;;-1.41;92.67
5609;BME280;2826;51.354;9.588;2023-01-26T08:20:19;98721.03;;;-1.37;92.64
5609;BME280;2826;51.354;9.588;2023-01-26T08:22:45;98700.47;;;-1.51;92.96
5609;BME280;2826;51.354;9.588;2023-01-26T08:25:12;98720.22;;;-1.36;92.91
5609;BME280;2826;51.354;9.588;2023-01-26T08:27:39;98716.75;;;-1.41;92.65
5609;BME280;2826;51.354;9.588;2023-01-26T08:30:07;98716.69;;;-1.44;92.62
5609;BME280;2826;51.354;9.588;2023-01-26T08:32:33;98723.56;;;-1.38;93.04
5609;BME280;2826;51.354;9.588;2023-01-26T08:35:01;98722.03;;;-1.28;92.95
5609;BME280;2826;51.354;9.588;2023-01-26T08:37:28;98722.03;;;-1.28;92.91
5609;BME280;2826;51.354;9.588;2023-01-26T08:39:54;98719.47;;;-1.28;92.61
5609;BME280;2826;51.354;9.588;2023-01-26T08:42:21;98714.47;;;-1.24;92.63
5609;BME280;2826;51.354;9.588;2023-01-26T08:44:47;98711.19;;;-1.18;92.22
5609;BME280;2826;51.354;9.588;2023-01-26T08:47:14;98722.88;;;-1.28;92.61
5609;BME280;2826;51.354;9.588;2023-01-26T08:49:40;98726.97;;;-1.36;93.78
5609;BME280;2826;51.354;9.588;2023-01-26T08:52:08;98729.63;;;-1.32;94.47
5609;BME280;2826;51.354;9.588;2023-01-26T08:54:34;98718.59;;;-1.30;94.32
5609;BME280;2826;51.354;9.588;2023-01-26T08:57:01;98717.91;;;-1.22;94.06
5609;BME280;2826;51.354;9.588;2023-01-26T08:59:28;98707.81;;;-1.17;93.82
5609;BME280;2826;51.354;9.588;2023-01-26T09:01:54;98704.31;;;-1.24;93.66
5609;BME280;2826;51.354;9.588;2023-01-26T09:04:21;98700.94;;;-1.21;93.96
5609;BME280;2826;51.354;9.588;2023-01-26T09:06:47;98710.25;;;-1.22;93.75
5609;BME280;2826;51.354;9.588;2023-01-26T09:09:15;98711.28;;;-1.12;93.70
5609;BME280;2826;51.354;9.588;2023-01-26T09:11:42;98678.72;;;-1.32;93.52
5609;BME280;2826;51.354;9.588;2023-01-26T09:14:08;98714.66;;;-1.13;93.38
5609;BME280;2826;51.354;9.588;2023-01-26T09:16:35;98712.91;;;-1.17;93.28
5609;BME280;2826;51.354;9.588;2023-01-26T09:19:02;98713.63;;;-1.24;93.05
5609;BME280;2826;51.354;9.588;2023-01-26T09:21:29;98714.50;;;-1.22;93.37
5609;BME280;2826;51.354;9.588;2023-01-26T09:23:56;98722.25;;;-1.16;93.45
5609;BME280;2826;51.354;9.588;2023-01-26T09:26:23;98710.31;;;-1.19;93.25
5609;BME280;2826;51.354;9.588;2023-01-26T09:28:50;98708.75;;;-1.10;93.76
5609;BME280;2826;51.354;9.588;2023-01-26T09:31:17;98708.91;;;-1.01;93.50
5609;BME280;2826;51.354;9.588;2023-01-26T09:33:44;98698.78;;;-0.98;93.73
5609;BME280;2826;51.354;9.588;2023-01-26T09:36:11;98716.75;;;-0.88;93.25
5609;BME280;2826;51.354;9.588;2023-01-26T09:38:38;98720.28;;;-0.77;93.23
5609;BME280;2826;51.354;9.588;2023-01-26T09:41:09;98722.06;;;-0.73;93.07
5609;BME280;2826;51.354;9.588;2023-01-26T09:43:46;98717.78;;;-0.75;92.62
5609;BME280;2826;51.354;9.588;2023-01-26T09:46:21;98717.78;;;-0.74;92.87
5609;BME280;2826;51.354;9.588;2023-01-26T09:48:57;98725.53;;;-0.66;93.03
5609;BME280;2826;51.354;9.588;2023-01-26T09:51:30;98729.06;;;-0.58;92.61
5609;BME280;2826;51.354;9.588;2023-01-26T09:54:02;98728.16;;;-0.61;91.80
5609;BME280;2826;51.354;9.588;2023-01-26T09:56:30;98733.28;;;-0.60;91.76
5609;BME280;2826;51.354;9.588;2023-01-26T09:59:04;98704.22;;;-0.73;91.81
5609;BME280;2826;51.354;9.588;2023-01-26T10:01:40;98721.50;;;-0.51;91.94
5609;BME280;2826;51.354;9.588;2023-01-26T10:04:13;98722.56;;;-0.37;92.03
5609;BME280;2826;51.354;9.588;2023-01-26T10:06:46;98715.00;;;-0.29;91.78
5609;BME280;2826;51.354;9.588;2023-01-26T10:09:47;98715.91;;;-0.25;91.38
5609;BME280;2826;51.354;9.588;2023-01-26T10:12:17;98721.75;;;-0.34;90.67
5609;BME280;2826;51.354;9.588;2023-01-26T10:14:50;98725.19;;;-0.31;91.07
5609;BME280;2826;51.354;9.588;2023-01-26T10:17:20;98721.03;;;-0.22;91.27
5609;BME280;2826;51.354;9.588;2023-01-26T10:19:51;98712.56;;;-0.21;91.19
5609;BME280;2826;51.354;9.588;2023-01-26T10:22:24;98714.31;;;-0.17;90.95
5609;BME280;2826;51.354;9.588;2023-01-26T10:24:54;98681.78;;;-0.37;90.87
5609;BME280;2826;51.354;9.588;2023-01-26T10:27:22;98708.34;;;-0.19;90.99
5609;BME280;2826;51.354;9.588;2023-01-26T10:29:50;98707.41;;;-0.26;90.96
5609;BME280;2826;51.354;9.588;2023-01-26T10:32:17;98703.19;;;-0.24;90.69
5609;BME280;2826;51.354;9.588;2023-01-26T10:34:45;98704.03;;;-0.23;90.75
5609;BME280;2826;51.354;9.588;2023-01-26T10:37:19;98697.19;;;-0.28;90.69
5609;BME280;2826;51.354;9.588;2023-01-26T10:39:57;98691.22;;;-0.28;90.90
5609;BME280;2826;51.354;9.588;2023-01-26T10:42:27;98693.06;;;-0.19;91.18
5609;BME280;2826;51.354;9.588;2023-01-26T10:44:56;98681.28;;;-0.08;91.15
5609;BME280;2826;51.354;9.588;2023-01-26T10:47:23;98683.91;;;-0.02;90.70
5609;BME280;2826;51.354;9.588;2023-01-26T10:49:51;98680.56;;;0.03;90.47
5609;BME280;2826;51.354;9.588;2023-01-26T10:52:19;98687.41;;;0.08;89.78
5609;BME280;2826;51.354;9.588;2023-01-26T10:54:47;98687.31;;;0.01;89.40
5609;BME280;2826;51.354;9.588;2023-01-26T10:57:22;98671.91;;;-0.09;89.47
5609;BME280;2826;51.354;9.588;2023-01-26T10:59:54;98677.91;;;-0.05;90.13
5609;BME280;2826;51.354;9.588;2023-01-26T11:02:25;98675.44;;;0.01;90.34
5609;BME280;2826;51.354;9.588;2023-01-26T11:05:18;98667.09;;;0.15;90.65
5609;BME280;2826;51.354;9.588;2023-01-26T11:07:47;98667.25;;;0.32;90.22
5609;BME280;2826;51.354;9.588;2023-01-26T11:10:23;98669.03;;;0.41;89.78
5609;BME280;2826;51.354;9.588;2023-01-26T11:13:05;98668.34;;;0.59;89.29
5609;BME280;2826;51.354;9.588;2023-01-26T11:15:36;98663.31;;;0.65;88.11
5609;BME280;2826;51.354;9.588;2023-01-26T11:18:12;98657.41;;;0.74;87.69
5609;BME280;2826;51.354;9.588;2023-01-26T11:20:46;98655.75;;;0.81;86.67
5609;BME280;2826;51.354;9.588;2023-01-26T11:23:21;98652.34;;;0.80;86.79
5609;BME280;2826;51.354;9.588;2023-01-26T11:26:09;98654.94;;;0.83;86.25
5609;BME280;2826;51.354;9.588;2023-01-26T11:28:49;98650.72;;;0.90;86.42
5609;BME280;2826;51.354;9.588;2023-01-26T11:31:28;98655.16;;;1.17;86.08
5609;BME280;2826;51.354;9.588;2023-01-26T11:34:08;98644.13;;;1.23;84.25
5609;BME280;2826;51.354;9.588;2023-01-26T11:36:47;98642.41;;;1.22;84.11
5609;BME280;2826;51.354;9.588;2023-01-26T11:39:23;98633.03;;;1.21;83.27
5609;BME280;2826;51.354;9.588;2023-01-26T11:42:03;98623.75;;;1.37;83.46
5609;BME280;2826;51.354;9.588;2023-01-26T11:44:50;98616.97;;;1.42;82.67
5609;BME280;2826;51.354;9.588;2023-01-26T11:47:41;98613.59;;;1.51;82.46
5609;BME280;2826;51.354;9.588;2023-01-26T11:50:21;98605.97;;;1.59;81.68
5609;BME280;2826;51.354;9.588;2023-01-26T11:53:04;98602.56;;;1.63;81.33
5609;BME280;2826;51.354;9.588;2023-01-26T11:55:47;98602.53;;;1.59;81.25
5609;BME280;2826;51.354;9.588;2023-01-26T11:58:26;98592.34;;;1.66;81.25
5609;BME280;2826;51.354;9.588;2023-01-26T12:00:56;98599.13;;;1.55;80.68
5609;BME280;2826;51.354;9.588;2023-01-26T12:03:28;98593.16;;;1.53;81.13
5609;BME280;2826;51.354;9.588;2023-01-26T12:06:01;98590.56;;;1.43;81.28
5609;BME280;2826;51.354;9.588;2023-01-26T12:08:34;98591.38;;;1.41;81.13
5609;BME280;2826;51.354;9.588;2023-01-26T12:11:07;98587.97;;;1.33;81.00
5609;BME280;2826;51.354;9.588;2023-01-26T12:14:10;98582.78;;;1.19;81.27
5609;BME280;2826;51.354;9.588;2023-01-26T12:16:45;98589.63;;;1.23;81.90
5609;BME280;2826;51.354;9.588;2023-01-26T12:19:27;98592.97;;;1.14;82.16
5609;BME280;2826;51.354;9.588;2023-01-26T12:22:04;98592.09;;;1.10;82.97
5609;BME280;2826;51.354;9.588;2023-01-26T12:24:34;98584.41;;;1.02;82.01
5609;BME280;2826;51.354;9.588;2023-01-26T12:27:11;98584.34;;;0.91;82.64
5609;BME280;2826;51.354;9.588;2023-01-26T12:29:46;98574.88;;;0.76;83.33
5609;BME280;2826;51.354;9.588;2023-01-26T12:32:15;98580.78;;;0.69;83.90
5609;BME280;2826;51.354;9.588;2023-01-26T12:34:42;98580.84;;;0.75;84.60
5609;BME280;2826;51.354;9.588;2023-01-26T12:37:24;98578.31;;;0.78;84.30
5609;BME280;2826;51.354;9.588;2023-01-26T12:40:03;98568.94;;;0.77;84.71
5609;BME280;2826;51.354;9.588;2023-01-26T12:42:42;98566.38;;;0.73;85.00
5609;BME280;2826;51.354;9.588;2023-01-26T12:45:14;98553.53;;;0.67;84.76
5609;BME280;2826;51.354;9.588;2023-01-26T12:47:46;98566.38;;;0.74;85.13
5609;BME280;2826;51.354;9.588;2023-01-26T12:50:22;98567.22;;;0.72;85.25
5609;BME280;2826;51.354;9.588;2023-01-26T12:52:53;98562.94;;;0.68;84.94
5609;BME280;2826;51.354;9.588;2023-01-26T12:55:25;98561.16;;;0.59;85.36
5609;BME280;2826;51.354;9.588;2023-01-26T12:57:56;98552.63;;;0.54;86.08
5609;BME280;2826;51.354;9.588;2023-01-26T13:00:28;98558.53;;;0.49;85.78
5609;BME280;2826;51.354;9.588;2023-01-26T13:02:58;98556.88;;;0.51;86.73
5609;BME280;2826;51.354;9.588;2023-01-26T13:05:27;98560.31;;;0.57;86.63
5609;BME280;2826;51.354;9.588;2023-01-26T13:07:56;98563.69;;;0.57;86.24
5609;BME280;2826;51.354;9.588;2023-01-26T13:10:26;98562.84;;;0.55;86.57
5609;BME280;2826;51.354;9.588;2023-01-26T13:12:56;98567.06;;;0.51;86.61
5609;BME280;2826;51.354;9.588;2023-01-26T13:15:26;98549.09;;;0.37;86.48
5609;BME280;2826;51.354;9.588;2023-01-26T13:17:55;98559.34;;;0.44;87.12
5609;BME280;2826;51.354;9.588;2023-01-26T13:23:38;98565.31;;;0.44;87.80
5609;BME280;2826;51.354;9.588;2023-01-26T13:26:17;98562.69;;;0.38;88.39
5609;BME280;2826;51.354;9.588;2023-01-26T13:28:46;98558.44;;;0.38;88.44
5609;BME280;2826;51.354;9.588;2023-01-26T13:31:28;98566.91;;;0.34;88.71
5609;BME280;2826;51.354;9.588;2023-01-26T13:33:58;98566.84;;;0.25;89.28
5609;BME280;2826;51.354;9.588;2023-01-26T13:36:31;98565.16;;;0.24;90.15
5609;BME280;2826;51.354;9.588;2023-01-26T13:39:04;98569.38;;;0.20;90.12
5609;BME280;2826;51.354;9.588;2023-01-26T13:41:43;98553.16;;;0.12;90.35
5609;BME280;2826;51.354;9.588;2023-01-26T13:44:14;98570.19;;;0.19;90.57
5609;BME280;2826;51.354;9.588;2023-01-26T13:46:44;98577.81;;;0.18;91.37
5609;BME280;2826;51.354;9.588;2023-01-26T13:49:23;98566.78;;;0.17;91.73
5609;BME280;2826;51.354;9.588;2023-01-26T13:51:50;98570.19;;;0.16;92.27